createdAt,value
2023-02-14T00:02:14.367Z,102984.94
2023-02-14T00:04:44.526Z,102983.78
2023-02-14T00:07:12.406Z,102982.38
2023-02-14T00:09:39.336Z,102979.56
2023-02-14T00:12:06.484Z,102973.94
2023-02-14T00:14:36.766Z,102972.22
2023-02-14T00:17:04.270Z,102979.81
2023-02-14T00:19:32.040Z,102972.78
2023-02-14T00:22:02.499Z,102978.41
2023-02-14T00:24:29.707Z,102985.13
2023-02-14T00:26:56.593Z,102982.00
2023-02-14T00:29:24.795Z,102982.56
2023-02-14T00:31:52.197Z,102976.06
2023-02-14T00:34:20.190Z,102972.66
2023-02-14T00:36:48.718Z,102967.03
2023-02-14T00:39:16.969Z,102969.28
2023-02-14T00:41:43.963Z,102961.97
2023-02-14T00:44:14.459Z,102968.09
2023-02-14T00:46:41.551Z,102964.47
2023-02-14T00:49:08.485Z,102964.97
2023-02-14T00:51:35.469Z,102965.25
2023-02-14T00:54:03.707Z,102975.91
2023-02-14T00:56:30.652Z,102973.63
2023-02-14T00:58:57.536Z,102959.53
2023-02-14T01:01:24.535Z,102965.66
2023-02-14T01:03:51.411Z,102965.34
2023-02-14T01:06:18.143Z,102966.44
2023-02-14T01:08:45.236Z,102962.81
2023-02-14T01:11:17.705Z,102957.44
2023-02-14T01:13:44.768Z,102948.41
2023-02-14T01:16:16.837Z,102948.09
2023-02-14T01:18:47.046Z,102953.16
2023-02-14T01:21:15.526Z,102955.63
2023-02-14T01:23:45.372Z,102954.78
2023-02-14T01:26:12.390Z,102945.78
2023-02-14T01:28:39.381Z,102945.16
2023-02-14T01:31:07.808Z,102939.81
2023-02-14T01:33:34.866Z,102942.63
2023-02-14T01:36:02.244Z,102944.81
2023-02-14T01:38:30.276Z,102946.22
2023-02-14T01:40:57.610Z,102950.13
2023-02-14T01:43:26.849Z,102953.19
2023-02-14T01:45:53.876Z,102953.72
2023-02-14T01:48:22.027Z,102943.34
2023-02-14T01:50:50.568Z,102947.78
2023-02-14T01:53:20.256Z,102943.03
2023-02-14T01:55:51.031Z,102939.63
2023-02-14T01:58:21.430Z,102943.81
2023-02-14T02:00:51.781Z,102936.19
2023-02-14T02:03:19.682Z,102948.59
2023-02-14T02:05:48.673Z,102935.03
2023-02-14T02:08:15.713Z,102936.50
2023-02-14T02:10:42.666Z,102928.00
2023-02-14T02:13:15.294Z,102929.09
2023-02-14T02:15:46.545Z,102938.63
2023-02-14T02:18:16.785Z,102933.28
2023-02-14T02:20:44.154Z,102929.88
2023-02-14T02:23:14.245Z,102929.88
2023-02-14T02:25:44.253Z,102927.59
2023-02-14T02:28:12.733Z,102921.13
2023-02-14T02:30:42.685Z,102925.06
2023-02-14T02:33:10.983Z,102928.09
2023-02-14T02:35:41.264Z,102931.78
2023-02-14T02:38:17.164Z,102924.72
2023-02-14T02:40:44.366Z,102923.88
2023-02-14T02:43:14.339Z,102926.69
2023-02-14T02:46:01.612Z,102921.59
2023-02-14T02:48:34.919Z,102926.13
2023-02-14T02:51:08.936Z,102919.28
2023-02-14T02:53:37.200Z,102926.06
2023-02-14T02:56:10.060Z,102922.09
2023-02-14T02:58:38.399Z,102916.16
2023-02-14T03:01:09.594Z,102916.44
2023-02-14T03:03:40.911Z,102915.59
2023-02-14T03:06:07.951Z,102910.22
2023-02-14T03:08:34.751Z,102911.63
2023-02-14T03:11:03.501Z,102902.06
2023-02-14T03:13:33.338Z,102899.78
2023-02-14T03:16:01.711Z,102908.81
2023-02-14T03:18:29.886Z,102909.06
2023-02-14T03:21:00.317Z,102909.84
2023-02-14T03:23:30.574Z,102905.06
2023-02-14T03:26:00.388Z,102908.66
2023-02-14T03:28:35.183Z,102910.38
2023-02-14T03:31:03.151Z,102902.44
2023-02-14T03:33:30.655Z,102905.53
2023-02-14T03:36:02.497Z,102903.84
2023-02-14T03:38:33.369Z,102906.66
2023-02-14T03:41:02.909Z,102903.22
2023-02-14T03:43:32.262Z,102898.16
2023-02-14T03:46:04.883Z,102900.34
2023-02-14T03:48:32.525Z,102903.44
2023-02-14T03:51:00.695Z,102900.88
2023-02-14T03:53:29.140Z,102900.63
2023-02-14T03:55:59.000Z,102903.09
2023-02-14T03:58:28.936Z,102900.28
2023-02-14T04:01:01.184Z,102904.69
2023-02-14T04:03:29.291Z,102899.34
2023-02-14T04:05:56.584Z,102891.78
2023-02-14T04:08:25.382Z,102889.47
2023-02-14T04:10:53.367Z,102890.00
2023-02-14T04:13:20.630Z,102893.66
2023-02-14T04:15:47.501Z,102888.03
2023-02-14T04:18:21.869Z,102893.06
2023-02-14T04:20:48.708Z,102894.75
2023-02-14T04:23:15.607Z,102895.84
2023-02-14T04:25:43.942Z,102893.06
2023-02-14T04:28:10.822Z,102895.28
2023-02-14T04:30:38.101Z,102897.50
2023-02-14T04:33:08.611Z,102892.97
2023-02-14T04:35:35.570Z,102896.91
2023-02-14T04:38:03.630Z,102901.06
2023-02-14T04:40:30.994Z,102888.41
2023-02-14T04:42:58.117Z,102887.81
2023-02-14T04:45:27.375Z,102897.34
2023-02-14T04:47:54.338Z,102893.09
2023-02-14T04:50:23.691Z,102891.13
2023-02-14T04:52:50.489Z,102896.44
2023-02-14T04:55:17.527Z,102896.44
2023-02-14T04:57:44.318Z,102894.44
2023-02-14T05:00:11.671Z,102893.63
2023-02-14T05:02:38.550Z,102893.53
2023-02-14T05:05:05.548Z,102897.19
2023-02-14T05:07:32.314Z,102900.78
2023-02-14T05:09:59.188Z,102901.25
2023-02-14T05:12:26.234Z,102896.75
2023-02-14T05:14:52.928Z,102902.13
2023-02-14T05:17:20.051Z,102904.34
2023-02-14T05:19:49.004Z,102908.25
2023-02-14T05:22:18.168Z,102909.59
2023-02-14T05:24:45.189Z,102913.78
2023-02-14T05:27:12.432Z,102900.59
2023-02-14T05:29:39.202Z,102901.94
2023-02-14T05:32:05.951Z,102900.28
2023-02-14T05:34:32.774Z,102892.97
2023-02-14T05:36:59.431Z,102910.03
2023-02-14T05:39:26.147Z,102899.91
2023-02-14T05:41:55.459Z,102895.25
2023-02-14T05:44:24.884Z,102898.97
2023-02-14T05:46:51.738Z,102902.72
2023-02-14T05:49:18.441Z,102917.16
2023-02-14T05:51:45.188Z,102898.72
2023-02-14T05:54:12.552Z,102904.41
2023-02-14T05:56:39.662Z,102908.38
2023-02-14T05:59:06.450Z,102905.06
2023-02-14T06:01:33.173Z,102902.56
2023-02-14T06:04:02.361Z,102913.03
2023-02-14T06:06:29.119Z,102901.03
2023-02-14T06:08:55.890Z,102903.94
2023-02-14T06:11:22.596Z,102896.44
2023-02-14T06:13:50.715Z,102898.22
2023-02-14T06:16:17.400Z,102898.28
2023-02-14T06:18:44.483Z,102897.50
2023-02-14T06:21:11.277Z,102891.97
2023-02-14T06:23:38.102Z,102897.38
2023-02-14T06:26:05.022Z,102902.44
2023-02-14T06:28:31.730Z,102910.94
2023-02-14T06:30:58.948Z,102906.50
2023-02-14T06:33:25.967Z,102908.78
2023-02-14T06:35:54.903Z,102906.31
2023-02-14T06:38:21.728Z,102908.31
2023-02-14T06:40:50.936Z,102908.06
2023-02-14T06:43:17.638Z,102914.31
2023-02-14T06:45:44.497Z,102920.09
2023-02-14T06:48:11.658Z,102908.59
2023-02-14T06:50:38.367Z,102912.97
2023-02-14T06:53:08.631Z,102913.03
2023-02-14T06:55:35.387Z,102927.41
2023-02-14T06:58:02.078Z,102923.22
2023-02-14T07:00:31.929Z,102911.69
2023-02-14T07:02:59.211Z,102917.91
2023-02-14T07:05:25.962Z,102921.59
2023-02-14T07:07:55.823Z,102924.16
2023-02-14T07:10:22.531Z,102922.50
2023-02-14T07:12:49.317Z,102928.44
2023-02-14T07:15:16.073Z,102927.66
2023-02-14T07:17:43.211Z,102932.47
2023-02-14T07:20:10.741Z,102933.69
2023-02-14T07:22:37.924Z,102940.22
2023-02-14T07:25:05.486Z,102937.72
2023-02-14T07:27:32.336Z,102943.69
2023-02-14T07:30:01.713Z,102945.94
2023-02-14T07:32:28.544Z,102949.00
2023-02-14T07:34:55.829Z,102952.69
2023-02-14T07:37:22.763Z,102946.19
2023-02-14T07:39:49.720Z,102956.59
2023-02-14T07:42:16.639Z,102951.81
2023-02-14T07:44:44.627Z,102942.00
2023-02-14T07:47:11.564Z,102954.94
2023-02-14T07:49:38.485Z,102957.75
2023-02-14T07:52:05.667Z,102951.88
2023-02-14T07:54:32.985Z,102955.25
2023-02-14T07:56:59.880Z,102954.41
2023-02-14T07:59:26.795Z,102953.84
2023-02-14T08:01:53.720Z,102950.78
2023-02-14T08:04:21.785Z,102962.84
2023-02-14T08:06:48.757Z,102964.75
2023-02-14T08:09:24.956Z,102957.78
2023-02-14T08:11:57.518Z,102958.72
2023-02-14T08:14:24.777Z,102959.81
2023-02-14T08:16:51.806Z,102956.22
2023-02-14T08:19:18.726Z,102962.09
2023-02-14T08:21:45.705Z,102949.50
2023-02-14T08:24:13.257Z,102958.78
2023-02-14T08:26:40.363Z,102965.22
2023-02-14T08:29:07.269Z,102973.41
2023-02-14T08:31:36.487Z,102965.44
2023-02-14T08:34:05.664Z,102969.97
2023-02-14T08:36:33.252Z,102968.25
2023-02-14T08:39:00.538Z,102969.59
2023-02-14T08:41:27.886Z,102969.00
2023-02-14T08:43:55.206Z,102962.22
2023-02-14T08:46:22.690Z,102963.31
2023-02-14T08:48:50.850Z,102960.47
2023-02-14T08:51:18.166Z,102965.16
2023-02-14T08:53:46.772Z,102964.31
2023-02-14T08:56:15.885Z,102965.63
2023-02-14T08:58:43.128Z,102960.78
2023-02-14T09:01:11.058Z,102963.03
2023-02-14T09:03:38.711Z,102971.38
2023-02-14T09:06:06.983Z,102970.25
2023-02-14T09:08:35.582Z,102969.34
2023-02-14T09:11:06.393Z,102973.28
2023-02-14T09:13:33.791Z,102970.38
2023-02-14T09:16:04.671Z,102964.69
2023-02-14T09:18:32.165Z,102958.75
2023-02-14T09:20:59.976Z,102955.63
2023-02-14T09:23:27.308Z,102953.06
2023-02-14T09:25:57.567Z,102955.31
2023-02-14T09:28:24.689Z,102961.16
2023-02-14T09:30:54.303Z,102955.81
2023-02-14T09:33:21.637Z,102954.38
2023-02-14T09:35:51.939Z,102965.00
2023-02-14T09:38:19.378Z,102952.34
2023-02-14T09:40:47.092Z,102956.25
2023-02-14T09:43:14.596Z,102951.75
2023-02-14T09:45:41.660Z,102949.22
2023-02-14T09:48:13.302Z,102942.47
2023-02-14T09:50:43.843Z,102940.34
2023-02-14T09:53:13.970Z,102935.38
2023-02-14T09:55:47.780Z,102936.91
2023-02-14T09:58:20.113Z,102933.03
2023-02-14T10:00:53.563Z,102926.91
2023-02-14T10:03:23.707Z,102934.56
2023-02-14T10:05:53.775Z,102926.44
2023-02-14T10:08:23.893Z,102925.38
2023-02-14T10:10:55.987Z,102929.09
2023-02-14T10:13:26.229Z,102926.03
2023-02-14T10:16:00.367Z,102925.75
2023-02-14T10:18:30.618Z,102924.16
2023-02-14T10:20:59.724Z,102921.03
2023-02-14T10:23:28.457Z,102916.59
2023-02-14T10:25:58.955Z,102919.41
2023-02-14T10:28:30.913Z,102922.56
2023-02-14T10:31:06.358Z,102922.56
2023-02-14T10:33:35.570Z,102921.16
2023-02-14T10:36:05.259Z,102920.91
2023-02-14T10:38:33.732Z,102915.00
2023-02-14T10:41:04.968Z,102918.41
2023-02-14T10:43:33.324Z,102923.78
2023-02-14T10:46:04.132Z,102913.38
2023-02-14T10:48:34.608Z,102919.00
2023-02-14T10:51:05.807Z,102919.88
2023-02-14T10:53:36.295Z,102906.66
2023-02-14T10:56:07.177Z,102915.09
2023-02-14T10:58:37.464Z,102911.19
2023-02-14T11:01:06.374Z,102915.97
2023-02-14T11:03:35.435Z,102914.00
2023-02-14T11:06:02.607Z,102917.91
2023-02-14T11:08:32.951Z,102922.69
2023-02-14T11:11:03.661Z,102916.81
2023-02-14T11:13:33.759Z,102913.38
2023-02-14T11:16:02.615Z,102920.97
2023-02-14T11:18:33.419Z,102912.81
2023-02-14T11:21:04.541Z,102910.00
2023-02-14T11:23:38.367Z,102913.06
2023-02-14T11:26:10.438Z,102906.31
2023-02-14T11:28:44.166Z,102910.78
2023-02-14T11:31:11.281Z,102906.00
2023-02-14T11:33:40.898Z,102901.25
2023-02-14T11:36:14.177Z,102896.72
2023-02-14T11:38:41.859Z,102893.59
2023-02-14T11:41:11.864Z,102897.22
2023-02-14T11:43:40.316Z,102892.16
2023-02-14T11:46:08.891Z,102885.06
2023-02-14T11:48:38.705Z,102885.06
2023-02-14T11:51:10.972Z,102890.41
2023-02-14T11:53:39.329Z,102890.06
2023-02-14T11:56:06.534Z,102876.03
2023-02-14T11:58:33.879Z,102878.28
2023-02-14T12:01:03.527Z,102874.84
2023-02-14T12:03:36.264Z,102874.00
2023-02-14T12:06:03.382Z,102863.91
2023-02-14T12:08:32.019Z,102861.34
2023-02-14T12:11:02.634Z,102857.69
2023-02-14T12:13:29.749Z,102857.69
2023-02-14T12:15:58.151Z,102852.06
2023-02-14T12:18:29.112Z,102844.50
2023-02-14T12:20:59.838Z,102839.13
2023-02-14T12:23:28.546Z,102839.97
2023-02-14T12:25:59.497Z,102836.31
2023-02-14T12:28:31.532Z,102835.47
2023-02-14T12:30:59.757Z,102832.66
2023-02-14T12:33:27.072Z,102836.31
2023-02-14T12:35:57.174Z,102832.66
2023-02-14T12:38:27.494Z,102825.06
2023-02-14T12:41:01.925Z,102820.84
2023-02-14T12:43:32.779Z,102816.66
2023-02-14T12:46:07.031Z,102813.28
2023-02-14T12:48:34.844Z,102805.69
2023-02-14T12:51:06.088Z,102808.75
2023-02-14T12:53:36.617Z,102805.94
2023-02-14T12:56:07.094Z,102798.38
2023-02-14T12:58:37.354Z,102804.25
2023-02-14T13:01:07.977Z,102796.94
2023-02-14T13:03:38.290Z,102792.16
2023-02-14T13:06:12.815Z,102799.75
2023-02-14T13:08:41.148Z,102793.25
2023-02-14T13:11:11.145Z,102794.97
2023-02-14T13:13:41.645Z,102799.75
2023-02-14T13:16:12.327Z,102793.00
2023-02-14T13:18:41.041Z,102791.91
2023-02-14T13:21:12.693Z,102789.66
2023-02-14T13:23:42.786Z,102789.66
2023-02-14T13:26:13.327Z,102791.66
2023-02-14T13:28:45.960Z,102784.03
2023-02-14T13:31:13.243Z,102779.56
2023-02-14T13:33:45.061Z,102781.22
2023-02-14T13:36:13.830Z,102784.34
2023-02-14T13:38:44.695Z,102780.41
2023-02-14T13:41:12.540Z,102771.13
2023-02-14T13:43:42.663Z,102761.00
2023-02-14T13:46:09.760Z,102753.94
2023-02-14T13:48:39.081Z,102752.84
2023-02-14T13:51:08.933Z,102751.72
2023-02-14T13:53:36.412Z,102752.28
2023-02-14T13:56:04.873Z,102751.41
2023-02-14T13:58:32.793Z,102757.88
2023-02-14T14:01:00.118Z,102749.72
2023-02-14T14:03:28.938Z,102748.88
2023-02-14T14:05:59.764Z,102748.88
2023-02-14T14:08:29.871Z,102733.97
2023-02-14T14:11:00.038Z,102734.25
2023-02-14T14:13:30.081Z,102725.81
2023-02-14T14:16:00.542Z,102728.03
2023-02-14T14:18:28.347Z,102726.09
2023-02-14T14:20:55.492Z,102731.44
2023-02-14T14:23:25.507Z,102724.38
2023-02-14T14:25:52.684Z,102729.75
2023-02-14T14:28:22.297Z,102718.19
2023-02-14T14:30:49.453Z,102710.03
2023-02-14T14:33:19.467Z,102719.84
2023-02-14T14:35:49.815Z,102719.00
2023-02-14T14:38:16.993Z,102718.09
2023-02-14T14:40:46.203Z,102711.38
2023-02-14T14:43:13.897Z,102709.66
2023-02-14T14:45:42.268Z,102703.47
2023-02-14T14:48:13.020Z,102702.09
2023-02-14T14:50:44.471Z,102701.50
2023-02-14T14:53:14.768Z,102704.31
2023-02-14T14:55:45.412Z,102702.03
2023-02-14T14:58:15.526Z,102691.66
2023-02-14T15:00:51.858Z,102696.16
2023-02-14T15:03:23.075Z,102694.19
2023-02-14T15:05:51.494Z,102687.41
2023-02-14T15:08:19.748Z,102687.69
2023-02-14T15:10:49.686Z,102685.41
2023-02-14T15:13:19.783Z,102685.13
2023-02-14T15:15:49.945Z,102681.72
2023-02-14T15:18:17.905Z,102679.22
2023-02-14T15:20:49.735Z,102683.72
2023-02-14T15:23:19.102Z,102680.31
2023-02-14T15:25:47.413Z,102676.41
2023-02-14T15:28:26.161Z,102680.56
2023-02-14T15:30:56.263Z,102678.38
2023-02-14T15:33:23.718Z,102677.78
2023-02-14T15:35:51.273Z,102676.91
2023-02-14T15:38:18.767Z,102669.03
2023-02-14T15:40:46.141Z,102669.63
2023-02-14T15:43:15.669Z,102671.00
2023-02-14T15:45:43.600Z,102675.50
2023-02-14T15:48:13.934Z,102661.72
2023-02-14T15:50:44.142Z,102663.97
2023-02-14T15:53:14.272Z,102657.75
2023-02-14T15:55:43.623Z,102662.25
2023-02-14T15:58:14.959Z,102657.66
2023-02-14T16:00:43.897Z,102652.34
2023-02-14T16:03:15.092Z,102653.69
2023-02-14T16:05:46.691Z,102650.88
2023-02-14T16:08:21.903Z,102646.38
2023-02-14T16:10:52.308Z,102646.38
2023-02-14T16:13:21.177Z,102649.19
2023-02-14T16:15:51.688Z,102639.03
2023-02-14T16:18:20.009Z,102640.47
2023-02-14T16:20:51.498Z,102636.25
2023-02-14T16:23:19.928Z,102643.22
2023-02-14T16:25:47.651Z,102641.25
2023-02-14T16:28:15.219Z,102638.72
2023-02-14T16:30:43.396Z,102635.31
2023-02-14T16:33:15.785Z,102640.69
2023-02-14T16:35:43.165Z,102637.28
2023-02-14T16:38:13.342Z,102634.16
2023-02-14T16:40:42.935Z,102635.28
2023-02-14T16:43:13.258Z,102632.16
2023-02-14T16:45:41.106Z,102629.34
2023-02-14T16:48:08.376Z,102626.78
2023-02-14T16:50:37.255Z,102622.56
2023-02-14T16:53:05.633Z,102623.13
2023-02-14T16:55:32.966Z,102626.75
2023-02-14T16:58:02.659Z,102615.25
2023-02-14T17:00:30.218Z,102613.56
2023-02-14T17:03:04.775Z,102624.78
2023-02-14T17:05:33.300Z,102622.78
2023-02-14T17:08:01.755Z,102619.97
2023-02-14T17:10:30.457Z,102619.41
2023-02-14T17:12:59.472Z,102627.81
2023-02-14T17:15:27.274Z,102630.88
2023-02-14T17:17:59.432Z,102629.75
2023-02-14T17:20:26.782Z,102635.88
2023-02-14T17:22:56.064Z,102624.66
2023-02-14T17:25:23.335Z,102633.34
2023-02-14T17:27:50.944Z,102631.13
2023-02-14T17:30:18.610Z,102630.56
2023-02-14T17:32:45.989Z,102632.75
2023-02-14T17:35:15.085Z,102630.25
2023-02-14T17:37:42.461Z,102630.50
2023-02-14T17:40:10.193Z,102629.09
2023-02-14T17:42:39.011Z,102626.59
2023-02-14T17:45:07.315Z,102630.50
2023-02-14T17:47:35.353Z,102627.69
2023-02-14T17:50:04.399Z,102630.75
2023-02-14T17:52:31.721Z,102629.03
2023-02-14T17:54:58.844Z,102626.22
2023-02-14T17:57:26.238Z,102631.03
2023-02-14T17:59:53.916Z,102632.97
2023-02-14T18:02:21.349Z,102639.69
2023-02-14T18:04:49.017Z,102628.72
2023-02-14T18:07:16.347Z,102620.59
2023-02-14T18:09:43.576Z,102625.06
2023-02-14T18:12:14.756Z,102631.81
2023-02-14T18:14:42.472Z,102628.16
2023-02-14T18:17:09.652Z,102620.00
2023-02-14T18:19:37.099Z,102611.59
2023-02-14T18:22:04.129Z,102614.38
2023-02-14T18:24:31.268Z,102614.91
2023-02-14T18:26:58.368Z,102615.44
2023-02-14T18:29:25.602Z,102609.56
2023-02-14T18:31:52.943Z,102609.81
2023-02-14T18:34:20.366Z,102598.88
2023-02-14T18:36:47.702Z,102599.97
2023-02-14T18:39:14.719Z,102593.53
2023-02-14T18:41:41.849Z,102592.94
2023-02-14T18:44:08.939Z,102597.44
2023-02-14T18:46:36.450Z,102595.72
2023-02-14T18:49:06.287Z,102587.31
2023-02-14T18:51:34.741Z,102594.31
2023-02-14T18:54:02.373Z,102594.06
2023-02-14T18:56:31.468Z,102596.25
2023-02-14T18:59:00.232Z,102599.06
2023-02-14T19:01:29.616Z,102596.25
2023-02-14T19:03:57.254Z,102599.06
2023-02-14T19:06:24.626Z,102594.84
2023-02-14T19:08:51.652Z,102580.81
2023-02-14T19:11:20.981Z,102581.09
2023-02-14T19:13:48.862Z,102585.28
2023-02-14T19:16:17.503Z,102581.34
2023-02-14T19:18:44.677Z,102584.97
2023-02-14T19:21:14.130Z,102587.47
2023-02-14T19:23:41.611Z,102591.97
2023-02-14T19:26:11.018Z,102586.09
2023-02-14T19:28:38.258Z,102584.91
2023-02-14T19:31:05.388Z,102577.66
2023-02-14T19:33:32.424Z,102579.06
2023-02-14T19:36:01.455Z,102588.00
2023-02-14T19:38:28.455Z,102591.03
2023-02-14T19:40:57.014Z,102594.06
2023-02-14T19:43:24.207Z,102591.88
2023-02-14T19:45:52.054Z,102589.84
2023-02-14T19:48:19.495Z,102589.25
2023-02-14T19:50:47.167Z,102577.78
2023-02-14T19:53:14.259Z,102586.19
2023-02-14T19:55:41.373Z,102583.41
2023-02-14T19:58:08.410Z,102584.50
2023-02-14T20:00:37.786Z,102585.88
2023-02-14T20:03:05.601Z,102579.19
2023-02-14T20:05:32.880Z,102577.19
2023-02-14T20:08:00.367Z,102569.91
2023-02-14T20:10:27.321Z,102564.56
2023-02-14T20:12:54.371Z,102571.88
2023-02-14T20:15:21.531Z,102565.41
2023-02-14T20:17:49.187Z,102558.34
2023-02-14T20:20:17.055Z,102553.88
2023-02-14T20:22:44.078Z,102558.09
2023-02-14T20:25:11.620Z,102556.94
2023-02-14T20:27:38.792Z,102551.34
2023-02-14T20:30:06.896Z,102555.25
2023-02-14T20:32:34.169Z,102544.88
2023-02-14T20:35:01.360Z,102543.78
2023-02-14T20:37:28.530Z,102535.91
2023-02-14T20:39:55.701Z,102538.72
2023-02-14T20:42:23.840Z,102546.25
2023-02-14T20:44:50.978Z,102539.81
2023-02-14T20:47:18.116Z,102542.59
2023-02-14T20:49:45.355Z,102548.22
2023-02-14T20:52:12.562Z,102542.00
2023-02-14T20:54:40.102Z,102545.09
2023-02-14T20:57:07.279Z,102539.22
2023-02-14T20:59:34.356Z,102540.31
2023-02-14T21:02:01.526Z,102533.88
2023-02-14T21:04:29.066Z,102538.63
2023-02-14T21:06:58.081Z,102531.34
2023-02-14T21:09:25.250Z,102536.41
2023-02-14T21:11:54.381Z,102529.38
2023-02-14T21:14:21.724Z,102529.38
2023-02-14T21:16:48.720Z,102529.63
2023-02-14T21:19:18.951Z,102529.63
2023-02-14T21:21:46.001Z,102533.28
2023-02-14T21:24:15.100Z,102533.53
2023-02-14T21:26:42.627Z,102529.88
2023-02-14T21:29:10.329Z,102523.72
2023-02-14T21:31:37.630Z,102531.50
2023-02-14T21:34:05.197Z,102528.47
2023-02-14T21:36:35.764Z,102522.00
2023-02-14T21:39:04.053Z,102523.97
2023-02-14T21:41:31.324Z,102525.91
2023-02-14T21:44:01.391Z,102518.34
2023-02-14T21:46:31.361Z,102519.22
2023-02-14T21:49:02.650Z,102512.19
2023-02-14T21:51:30.189Z,102513.84
2023-02-14T21:53:57.725Z,102511.34
2023-02-14T21:56:24.901Z,102500.63
2023-02-14T21:58:53.041Z,102495.88
2023-02-14T22:01:21.560Z,102493.91
2023-02-14T22:03:49.036Z,102505.13
2023-02-14T22:06:16.078Z,102507.38
2023-02-14T22:08:43.675Z,102507.09
2023-02-14T22:11:13.667Z,102497.25
2023-02-14T22:13:41.200Z,102495.31
2023-02-14T22:16:09.710Z,102495.81
2023-02-14T22:18:36.993Z,102496.16
2023-02-14T22:21:05.240Z,102491.91
2023-02-14T22:23:33.062Z,102492.19
2023-02-14T22:26:03.438Z,102489.09
2023-02-14T22:28:30.460Z,102490.50
2023-02-14T22:30:59.957Z,102484.03
2023-02-14T22:33:27.281Z,102469.19
2023-02-14T22:35:55.078Z,102472.81
2023-02-14T22:38:22.071Z,102472.81
2023-02-14T22:40:49.366Z,102463.81
2023-02-14T22:43:17.853Z,102459.94
2023-02-14T22:45:44.796Z,102464.69
2023-02-14T22:48:11.870Z,102466.63
2023-02-14T22:50:38.851Z,102466.06
2023-02-14T22:53:05.832Z,102462.16
2023-02-14T22:55:32.967Z,102461.56
2023-02-14T22:58:01.681Z,102457.06
2023-02-14T23:00:28.655Z,102462.66
2023-02-14T23:02:55.970Z,102451.19
2023-02-14T23:05:22.995Z,102450.34
2023-02-14T23:07:50.009Z,102457.59
2023-02-14T23:10:17.106Z,102455.88
2023-02-14T23:12:47.328Z,102444.69
2023-02-14T23:15:17.516Z,102446.38
2023-02-14T23:17:47.763Z,102449.44
2023-02-14T23:20:18.000Z,102444.94
2023-02-14T23:22:45.038Z,102448.59
2023-02-14T23:25:12.398Z,102443.28
2023-02-14T23:27:41.207Z,102440.47
2023-02-14T23:30:09.349Z,102444.13
2023-02-14T23:32:36.554Z,102445.22
2023-02-14T23:35:03.605Z,102443.28
2023-02-14T23:37:30.627Z,102447.16
2023-02-14T23:39:57.554Z,102445.72
2023-02-14T23:42:24.517Z,102440.72
2023-02-14T23:44:51.494Z,102445.47
2023-02-14T23:47:18.566Z,102449.13
2023-02-14T23:49:46.422Z,102445.72
2023-02-14T23:52:14.357Z,102448.53
2023-02-14T23:54:41.281Z,102446.84
2023-02-14T23:57:08.728Z,102440.13
2023-02-14T23:59:36.104Z,102440.66
